Time;durP1;ratioP1;P1;durP2;ratioP2;P2;SDS_P1;SDS_P2;PMS_P1;PMS_P2;Temp;Humidity;BMP_temperature;BMP_pressure;BME280_temperature;BME280_humidity;BME280_pressure;Samples;Min_cycle;Max_cycle;Signal;HPM_P1;HPM_P2
2023/08/22 00:02:19;;;;;;;25.10;19.30;;;;;;;-128.00;-1.00;-1.00;105488;1254;1004145;-81
2023/08/22 00:04:45;;;;;;;24.00;17.40;;;;;;;-128.00;-1.00;-1.00;105307;1253;1003789;-81
2023/08/22 00:07:12;;;;;;;19.90;17.00;;;;;;;-128.00;-1.00;-1.00;105511;1254;1004919;-81
2023/08/22 00:09:38;;;;;;;23.00;17.40;;;;;;;-128.00;-1.00;-1.00;105526;1254;1004093;-81
2023/08/22 00:12:05;;;;;;;20.70;17.50;;;;;;;-128.00;-1.00;-1.00;105507;1254;1004358;-81
2023/08/22 00:14:32;;;;;;;22.30;18.70;;;;;;;-128.00;-1.00;-1.00;105524;1254;1004539;-82
2023/08/22 00:16:58;;;;;;;26.50;18.90;;;;;;;-128.00;-1.00;-1.00;105517;1253;1004090;-81
2023/08/22 00:19:25;;;;;;;21.30;19.00;;;;;;;-128.00;-1.00;-1.00;105494;1256;1003495;-81
2023/08/22 00:21:52;;;;;;;21.70;19.20;;;;;;;-128.00;-1.00;-1.00;105479;1254;1004801;-81
2023/08/22 00:24:19;;;;;;;24.80;19.20;;;;;;;-128.00;-1.00;-1.00;105499;1254;1004368;-81
2023/08/22 00:26:45;;;;;;;23.70;20.20;;;;;;;-128.00;-1.00;-1.00;105536;1253;1004430;-81
2023/08/22 00:29:12;;;;;;;22.60;18.40;;;;;;;-128.00;-1.00;-1.00;105515;1253;1004151;-81
2023/08/22 00:31:38;;;;;;;25.60;20.40;;;;;;;-128.00;-1.00;-1.00;105566;1253;1003709;-81
2023/08/22 00:34:05;;;;;;;24.30;20.40;;;;;;;-128.00;-1.00;-1.00;105509;1254;1004863;-81
2023/08/22 00:36:31;;;;;;;25.60;19.90;;;;;;;-128.00;-1.00;-1.00;105547;1252;1004462;-81
2023/08/22 00:38:58;;;;;;;24.60;21.00;;;;;;;-128.00;-1.00;-1.00;105565;1254;1004191;-81
2023/08/22 00:41:24;;;;;;;23.70;20.90;;;;;;;-128.00;-1.00;-1.00;105573;1252;1003801;-81
2023/08/22 00:43:51;;;;;;;25.80;20.60;;;;;;;-128.00;-1.00;-1.00;105577;1253;1004455;-81
2023/08/22 00:46:20;;;;;;;28.20;21.50;;;;;;;-128.00;-1.00;-1.00;105549;1253;1004098;-81
2023/08/22 00:48:46;;;;;;;;;;;;;;;-128.00;-1.00;-1.00;105447;1254;1046648;-81
2023/08/22 00:51:14;;;;;;;26.70;21.60;;;;;;;-128.00;-1.00;-1.00;105462;1254;1004356;-81
2023/08/22 00:53:41;;;;;;;28.60;20.90;;;;;;;-128.00;-1.00;-1.00;105565;1252;1061837;-81
2023/08/22 00:56:08;;;;;;;29.20;20.40;;;;;;;-128.00;-1.00;-1.00;105596;1254;1004570;-82
2023/08/22 00:58:35;;;;;;;22.70;19.80;;;;;;;-128.00;-1.00;-1.00;105398;1258;1004638;-81
2023/08/22 01:01:02;;;;;;;23.00;18.90;;;;;;;-128.00;-1.00;-1.00;105456;1254;1004588;-82
2023/08/22 01:03:29;;;;;;;23.40;19.90;;;;;;;-128.00;-1.00;-1.00;105558;1254;1004644;-81
2023/08/22 01:06:03;;;;;;;25.80;19.20;;;;;;;-128.00;-1.00;-1.00;105595;1253;1005454;-81
2023/08/22 01:08:31;;;;;;;24.20;18.70;;;;;;;-128.00;-1.00;-1.00;105564;1253;1058666;-81
2023/08/22 01:11:01;;;;;;;23.70;20.10;;;;;;;-128.00;-1.00;-1.00;105541;1254;1059350;-81
2023/08/22 01:13:31;;;;;;;23.60;18.50;;;;;;;-128.00;-1.00;-1.00;105279;1254;1046805;-81
2023/08/22 01:15:58;;;;;;;20.50;18.40;;;;;;;-128.00;-1.00;-1.00;105492;1254;1046130;-81
2023/08/22 01:18:24;;;;;;;20.70;17.90;;;;;;;-128.00;-1.00;-1.00;105536;1253;1003931;-81
2023/08/22 01:20:51;;;;;;;20.40;18.30;;;;;;;-128.00;-1.00;-1.00;105506;1252;1004789;-81
2023/08/22 01:23:17;;;;;;;25.90;18.90;;;;;;;-128.00;-1.00;-1.00;105497;1254;1004659;-81
2023/08/22 01:25:44;;;;;;;26.50;19.10;;;;;;;-128.00;-1.00;-1.00;105499;1254;1003345;-81
2023/08/22 01:28:20;;;;;;;23.00;18.50;;;;;;;-128.00;-1.00;-1.00;105503;1253;1004311;-83
2023/08/22 01:31:02;;;;;;;21.20;18.10;;;;;;;-128.00;-1.00;-1.00;105285;1255;1062637;-81
2023/08/22 01:33:33;;;;;;;20.50;17.90;;;;;;;-128.00;-1.00;-1.00;105516;1254;1058864;-81
2023/08/22 01:36:00;;;;;;;20.90;17.10;;;;;;;-128.00;-1.00;-1.00;105466;1254;1059440;-81
2023/08/22 01:38:27;;;;;;;22.20;17.60;;;;;;;-128.00;-1.00;-1.00;105379;1253;1003798;-81
2023/08/22 01:40:54;;;;;;;22.00;17.70;;;;;;;-128.00;-1.00;-1.00;105482;1256;1003971;-81
2023/08/22 01:43:21;;;;;;;23.90;17.90;;;;;;;-128.00;-1.00;-1.00;105405;1254;1003761;-81
2023/08/22 01:45:48;;;;;;;23.20;18.90;;;;;;;-128.00;-1.00;-1.00;105527;1253;1004227;-81
2023/08/22 01:48:15;;;;;;;23.40;18.20;;;;;;;-128.00;-1.00;-1.00;105519;1254;1005150;-81
2023/08/22 01:50:41;;;;;;;26.00;18.70;;;;;;;-128.00;-1.00;-1.00;105586;1254;1005435;-81
2023/08/22 01:53:08;;;;;;;23.40;17.20;;;;;;;-128.00;-1.00;-1.00;105571;1254;1004979;-81
2023/08/22 01:55:34;;;;;;;24.00;18.90;;;;;;;-128.00;-1.00;-1.00;105540;1254;1003950;-81
2023/08/22 01:58:00;;;;;;;22.80;17.50;;;;;;;-128.00;-1.00;-1.00;105561;1254;1004310;-81
2023/08/22 02:00:27;;;;;;;23.50;17.50;;;;;;;-128.00;-1.00;-1.00;105552;1252;1005293;-82
2023/08/22 02:02:53;;;;;;;26.30;20.00;;;;;;;-128.00;-1.00;-1.00;105551;1254;1004412;-81
2023/08/22 02:05:20;;;;;;;26.60;19.80;;;;;;;-128.00;-1.00;-1.00;105536;1253;1004931;-81
2023/08/22 02:07:46;;;;;;;20.70;17.70;;;;;;;-128.00;-1.00;-1.00;105560;1254;1004454;-81
2023/08/22 02:10:13;;;;;;;23.10;19.80;;;;;;;-128.00;-1.00;-1.00;105565;1251;1003927;-81
2023/08/22 02:12:39;;;;;;;23.90;19.40;;;;;;;-128.00;-1.00;-1.00;105530;1254;1004224;-81
2023/08/22 02:15:07;;;;;;;26.30;18.00;;;;;;;-128.00;-1.00;-1.00;105572;1253;1003440;-81
2023/08/22 02:17:33;;;;;;;20.90;18.70;;;;;;;-128.00;-1.00;-1.00;105582;1254;1005061;-81
2023/08/22 02:20:00;;;;;;;19.80;16.40;;;;;;;-128.00;-1.00;-1.00;105493;1254;1004050;-80
2023/08/22 02:22:27;;;;;;;17.30;15.30;;;;;;;-128.00;-1.00;-1.00;105495;1254;1005009;-81
2023/08/22 02:24:53;;;;;;;18.30;16.40;;;;;;;-128.00;-1.00;-1.00;105499;1253;1004688;-81
2023/08/22 02:27:20;;;;;;;19.70;17.00;;;;;;;-128.00;-1.00;-1.00;105453;1254;1004431;-81
2023/08/22 02:29:46;;;;;;;22.90;17.40;;;;;;;-128.00;-1.00;-1.00;105485;1254;1004069;-81
2023/08/22 02:32:13;;;;;;;19.80;16.90;;;;;;;-128.00;-1.00;-1.00;105523;1256;1004798;-81
2023/08/22 02:34:39;;;;;;;21.60;16.60;;;;;;;-128.00;-1.00;-1.00;105516;1254;1003773;-81
2023/08/22 02:37:06;;;;;;;18.90;16.90;;;;;;;-128.00;-1.00;-1.00;105482;1253;1004309;-80
2023/08/22 02:39:32;;;;;;;19.80;17.50;;;;;;;-128.00;-1.00;-1.00;105478;1252;1005197;-81
2023/08/22 02:41:59;;;;;;;20.20;16.90;;;;;;;-128.00;-1.00;-1.00;105474;1254;1004487;-81
2023/08/22 02:44:25;;;;;;;27.00;18.00;;;;;;;-128.00;-1.00;-1.00;105424;1254;1004087;-81
2023/08/22 02:46:52;;;;;;;20.00;17.90;;;;;;;-128.00;-1.00;-1.00;105515;1254;1004340;-81
2023/08/22 02:49:18;;;;;;;31.10;18.20;;;;;;;-128.00;-1.00;-1.00;105513;1255;1004709;-81
2023/08/22 02:51:45;;;;;;;25.90;19.40;;;;;;;-128.00;-1.00;-1.00;105469;1253;1004230;-82
2023/08/22 02:54:11;;;;;;;26.00;20.00;;;;;;;-128.00;-1.00;-1.00;105493;1254;1004908;-81
2023/08/22 02:56:38;;;;;;;23.50;20.60;;;;;;;-128.00;-1.00;-1.00;105475;1255;1004695;-81
2023/08/22 02:59:04;;;;;;;23.60;20.10;;;;;;;-128.00;-1.00;-1.00;105524;1253;1003753;-81
2023/08/22 03:01:30;;;;;;;21.20;17.60;;;;;;;-128.00;-1.00;-1.00;105466;1253;1004463;-81
2023/08/22 03:03:57;;;;;;;21.40;18.60;;;;;;;-128.00;-1.00;-1.00;105507;1253;1004067;-81
2023/08/22 03:06:24;;;;;;;20.00;17.20;;;;;;;-128.00;-1.00;-1.00;105512;1253;1004908;-81
2023/08/22 03:08:50;;;;;;;21.80;17.80;;;;;;;-128.00;-1.00;-1.00;105380;1254;1004531;-82
2023/08/22 03:11:17;;;;;;;21.50;17.60;;;;;;;-128.00;-1.00;-1.00;105495;1254;1003960;-81
2023/08/22 03:13:43;;;;;;;24.30;18.30;;;;;;;-128.00;-1.00;-1.00;105495;1254;1004774;-81
2023/08/22 03:16:10;;;;;;;17.40;15.60;;;;;;;-128.00;-1.00;-1.00;105492;1254;1004346;-81
2023/08/22 03:18:36;;;;;;;17.80;15.40;;;;;;;-128.00;-1.00;-1.00;105495;1253;1004827;-81
2023/08/22 03:21:03;;;;;;;20.50;17.30;;;;;;;-128.00;-1.00;-1.00;105525;1253;1004120;-81
2023/08/22 03:23:29;;;;;;;20.60;16.60;;;;;;;-128.00;-1.00;-1.00;105503;1254;1003988;-81
2023/08/22 03:25:57;;;;;;;22.60;17.20;;;;;;;-128.00;-1.00;-1.00;105499;1254;1004319;-81
2023/08/22 03:28:24;;;;;;;18.00;15.70;;;;;;;-128.00;-1.00;-1.00;105497;1253;1003390;-81
2023/08/22 03:30:55;;;;;;;17.90;16.00;;;;;;;-128.00;-1.00;-1.00;105271;1254;1004240;-81
2023/08/22 03:33:22;;;;;;;20.60;16.70;;;;;;;-128.00;-1.00;-1.00;105397;1253;1061614;-81
2023/08/22 03:35:49;;;;;;;19.50;16.10;;;;;;;-128.00;-1.00;-1.00;105518;1254;1003714;-81
2023/08/22 03:38:16;;;;;;;19.80;16.30;;;;;;;-128.00;-1.00;-1.00;105504;1253;1003448;-81
2023/08/22 03:40:43;;;;;;;18.00;15.80;;;;;;;-128.00;-1.00;-1.00;105483;1254;1003714;-81
2023/08/22 03:43:09;;;;;;;21.10;18.50;;;;;;;-128.00;-1.00;-1.00;105543;1253;1003725;-81
2023/08/22 03:45:36;;;;;;;19.70;17.30;;;;;;;-128.00;-1.00;-1.00;105502;1254;1005274;-81
2023/08/22 03:48:04;;;;;;;22.20;16.40;;;;;;;-128.00;-1.00;-1.00;105541;1253;1004063;-82
2023/08/22 03:50:31;;;;;;;21.90;17.10;;;;;;;-128.00;-1.00;-1.00;105449;1254;1005212;-81
2023/08/22 03:52:57;;;;;;;24.80;18.40;;;;;;;-128.00;-1.00;-1.00;105495;1254;1004063;-81
2023/08/22 03:55:24;;;;;;;20.00;17.30;;;;;;;-128.00;-1.00;-1.00;105510;1254;1003630;-81
2023/08/22 03:57:50;;;;;;;26.20;18.20;;;;;;;-128.00;-1.00;-1.00;105496;1253;1003721;-81
2023/08/22 04:00:17;;;;;;;21.80;17.10;;;;;;;-128.00;-1.00;-1.00;105468;1254;1003624;-82
2023/08/22 04:02:43;;;;;;;19.30;17.30;;;;;;;-128.00;-1.00;-1.00;105494;1254;1004349;-81
2023/08/22 04:05:10;;;;;;;20.00;16.40;;;;;;;-128.00;-1.00;-1.00;105485;1253;1004364;-81
2023/08/22 04:07:36;;;;;;;25.50;19.40;;;;;;;-128.00;-1.00;-1.00;105497;1253;1005085;-81
2023/08/22 04:10:03;;;;;;;19.90;16.60;;;;;;;-128.00;-1.00;-1.00;105518;1254;1005047;-81
2023/08/22 04:12:30;;;;;;;24.10;18.10;;;;;;;-128.00;-1.00;-1.00;105488;1254;1004599;-81
2023/08/22 04:14:56;;;;;;;24.00;17.80;;;;;;;-128.00;-1.00;-1.00;105497;1253;1003865;-81
2023/08/22 04:17:23;;;;;;;20.70;18.50;;;;;;;-128.00;-1.00;-1.00;105492;1253;1004531;-81
2023/08/22 04:19:49;;;;;;;19.10;16.80;;;;;;;-128.00;-1.00;-1.00;105480;1253;1004333;-81
2023/08/22 04:22:16;;;;;;;22.30;17.90;;;;;;;-128.00;-1.00;-1.00;105508;1254;1004961;-81
2023/08/22 04:24:42;;;;;;;21.80;16.70;;;;;;;-128.00;-1.00;-1.00;105492;1254;1005150;-81
2023/08/22 04:27:09;;;;;;;20.70;17.70;;;;;;;-128.00;-1.00;-1.00;105482;1254;1004489;-80
2023/08/22 04:29:35;;;;;;;18.30;16.40;;;;;;;-128.00;-1.00;-1.00;105505;1253;1004593;-81
2023/08/22 04:32:03;;;;;;;20.90;16.60;;;;;;;-128.00;-1.00;-1.00;105509;1253;1004832;-81
2023/08/22 04:34:30;;;;;;;22.40;17.90;;;;;;;-128.00;-1.00;-1.00;105491;1253;1005004;-81
2023/08/22 04:36:56;;;;;;;21.50;18.30;;;;;;;-128.00;-1.00;-1.00;105516;1253;1004291;-81
2023/08/22 04:39:23;;;;;;;22.70;18.20;;;;;;;-128.00;-1.00;-1.00;105487;1254;1003839;-81
2023/08/22 04:41:50;;;;;;;23.20;17.70;;;;;;;-128.00;-1.00;-1.00;105454;1253;1004825;-83
2023/08/22 04:44:16;;;;;;;19.40;16.40;;;;;;;-128.00;-1.00;-1.00;105476;1254;1004903;-81
2023/08/22 04:46:43;;;;;;;24.40;19.90;;;;;;;-128.00;-1.00;-1.00;105535;1253;1003357;-81
2023/08/22 04:49:09;;;;;;;26.40;19.80;;;;;;;-128.00;-1.00;-1.00;105457;1254;1003710;-81
2023/08/22 04:51:36;;;;;;;24.80;20.20;;;;;;;-128.00;-1.00;-1.00;105504;1254;1004995;-81
2023/08/22 04:54:02;;;;;;;25.10;20.80;;;;;;;-128.00;-1.00;-1.00;105496;1253;1004438;-81
2023/08/22 04:56:29;;;;;;;27.70;22.30;;;;;;;-128.00;-1.00;-1.00;105477;1253;1004395;-81
2023/08/22 04:58:56;;;;;;;32.20;21.00;;;;;;;-128.00;-1.00;-1.00;105472;1254;1004624;-82
2023/08/22 05:01:22;;;;;;;22.90;18.50;;;;;;;-128.00;-1.00;-1.00;105426;1253;1004549;-81
2023/08/22 05:03:50;;;;;;;19.50;16.10;;;;;;;-128.00;-1.00;-1.00;105466;1254;1004261;-81
2023/08/22 05:06:17;;;;;;;18.60;15.40;;;;;;;-128.00;-1.00;-1.00;105486;1254;1005119;-81
2023/08/22 05:08:43;;;;;;;17.30;15.40;;;;;;;-128.00;-1.00;-1.00;105468;1254;1004136;-81
2023/08/22 05:11:09;;;;;;;19.80;15.60;;;;;;;-128.00;-1.00;-1.00;105516;1253;1005103;-81
2023/08/22 05:13:36;;;;;;;20.70;16.50;;;;;;;-128.00;-1.00;-1.00;105513;1254;1004569;-81
2023/08/22 05:16:03;;;;;;;20.70;18.60;;;;;;;-128.00;-1.00;-1.00;105496;1253;1004649;-81
2023/08/22 05:18:29;;;;;;;25.00;19.40;;;;;;;-128.00;-1.00;-1.00;105452;1253;1004502;-81
2023/08/22 05:20:56;;;;;;;17.50;15.50;;;;;;;-128.00;-1.00;-1.00;105568;1253;1004805;-81
2023/08/22 05:23:22;;;;;;;17.10;15.20;;;;;;;-128.00;-1.00;-1.00;105567;1252;1004075;-81
2023/08/22 05:25:48;;;;;;;18.70;16.50;;;;;;;-128.00;-1.00;-1.00;105538;1253;1004374;-81
2023/08/22 05:28:15;;;;;;;21.40;15.70;;;;;;;-128.00;-1.00;-1.00;105557;1253;1003953;-81
2023/08/22 05:30:42;;;;;;;17.20;15.20;;;;;;;-128.00;-1.00;-1.00;105520;1254;1004185;-82
2023/08/22 05:33:09;;;;;;;18.60;15.70;;;;;;;-128.00;-1.00;-1.00;105442;1254;1003753;-81
2023/08/22 05:35:36;;;;;;;22.80;16.80;;;;;;;-128.00;-1.00;-1.00;105477;1253;1004769;-82
2023/08/22 05:38:02;;;;;;;20.50;16.00;;;;;;;-128.00;-1.00;-1.00;105513;1253;1005426;-81
2023/08/22 05:40:29;;;;;;;21.40;17.50;;;;;;;-128.00;-1.00;-1.00;105485;1253;1004886;-82
2023/08/22 05:42:56;;;;;;;20.90;17.30;;;;;;;-128.00;-1.00;-1.00;105490;1254;1003770;-81
2023/08/22 05:45:22;;;;;;;18.50;16.30;;;;;;;-128.00;-1.00;-1.00;105532;1253;1004039;-81
2023/08/22 05:47:49;;;;;;;19.50;16.30;;;;;;;-128.00;-1.00;-1.00;105518;1254;1003806;-81
2023/08/22 05:50:16;;;;;;;21.70;15.90;;;;;;;-128.00;-1.00;-1.00;105317;1254;1004416;-81
2023/08/22 05:52:42;;;;;;;19.30;16.00;;;;;;;-128.00;-1.00;-1.00;105499;1253;1003827;-82
2023/08/22 05:55:09;;;;;;;18.50;16.30;;;;;;;-128.00;-1.00;-1.00;105474;1253;1004753;-81
2023/08/22 05:57:36;;;;;;;19.70;17.20;;;;;;;-128.00;-1.00;-1.00;105522;1253;1004294;-81
2023/08/22 06:00:03;;;;;;;19.60;16.80;;;;;;;-128.00;-1.00;-1.00;105449;1253;1003864;-81
2023/08/22 06:02:30;;;;;;;18.60;15.00;;;;;;;-128.00;-1.00;-1.00;105405;1253;1004949;-81
2023/08/22 06:04:56;;;;;;;17.50;14.80;;;;;;;-128.00;-1.00;-1.00;105473;1253;1003761;-81
2023/08/22 06:07:23;;;;;;;17.50;15.50;;;;;;;-128.00;-1.00;-1.00;105503;1253;1004137;-81
2023/08/22 06:09:49;;;;;;;21.80;16.50;;;;;;;-128.00;-1.00;-1.00;105420;1253;1003948;-81
2023/08/22 06:12:17;;;;;;;21.50;15.90;;;;;;;-128.00;-1.00;-1.00;105412;1253;1004513;-81
2023/08/22 06:14:43;;;;;;;19.70;16.20;;;;;;;-128.00;-1.00;-1.00;105473;1253;1004693;-81
2023/08/22 06:17:10;;;;;;;19.20;15.90;;;;;;;-128.00;-1.00;-1.00;105401;1253;1004253;-82
2023/08/22 06:19:36;;;;;;;19.00;15.60;;;;;;;-128.00;-1.00;-1.00;105382;1254;1004375;-81
2023/08/22 06:22:03;;;;;;;18.80;15.00;;;;;;;-128.00;-1.00;-1.00;105451;1254;1004309;-81
2023/08/22 06:24:29;;;;;;;16.20;14.60;;;;;;;-128.00;-1.00;-1.00;105403;1253;1004869;-81
2023/08/22 06:26:56;;;;;;;16.70;15.00;;;;;;;-128.00;-1.00;-1.00;105386;1253;1003976;-82
2023/08/22 06:29:22;;;;;;;15.90;14.20;;;;;;;-128.00;-1.00;-1.00;105386;1256;1003751;-82
2023/08/22 06:31:49;;;;;;;19.40;14.40;;;;;;;-128.00;-1.00;-1.00;105313;1256;1004732;-81
2023/08/22 06:34:15;;;;;;;15.50;13.50;;;;;;;-128.00;-1.00;-1.00;105409;1253;1004224;-81
2023/08/22 06:36:42;;;;;;;18.00;12.50;;;;;;;-128.00;-1.00;-1.00;105352;1254;1004502;-81
2023/08/22 06:39:08;;;;;;;15.00;12.80;;;;;;;-128.00;-1.00;-1.00;105388;1253;1004351;-81
2023/08/22 06:41:35;;;;;;;14.30;12.50;;;;;;;-128.00;-1.00;-1.00;105412;1254;1004149;-81
2023/08/22 06:44:07;;;;;;;15.80;12.60;;;;;;;-128.00;-1.00;-1.00;105456;1254;1004864;-81
2023/08/22 06:46:35;;;;;;;17.60;12.40;;;;;;;-128.00;-1.00;-1.00;105450;1254;1047040;-81
2023/08/22 06:49:02;;;;;;;16.10;13.50;;;;;;;-128.00;-1.00;-1.00;105425;1253;1004485;-81
2023/08/22 06:51:30;;;;;;;17.30;13.20;;;;;;;-128.00;-1.00;-1.00;105427;1253;1004911;-81
2023/08/22 06:53:56;;;;;;;14.20;12.70;;;;;;;-128.00;-1.00;-1.00;105449;1253;1004710;-82
2023/08/22 06:56:24;;;;;;;16.90;11.30;;;;;;;-128.00;-1.00;-1.00;105468;1252;1004873;-81
2023/08/22 06:58:51;;;;;;;13.40;12.00;;;;;;;-128.00;-1.00;-1.00;105479;1253;1004979;-81
2023/08/22 07:01:18;;;;;;;15.10;10.80;;;;;;;-128.00;-1.00;-1.00;105472;1253;1004636;-82
2023/08/22 07:03:44;;;;;;;12.80;11.30;;;;;;;-128.00;-1.00;-1.00;105410;1252;1004559;-81
2023/08/22 07:06:11;;;;;;;13.50;11.10;;;;;;;-128.00;-1.00;-1.00;105382;1253;1004000;-81
2023/08/22 07:08:37;;;;;;;14.50;11.00;;;;;;;-128.00;-1.00;-1.00;105466;1253;1004818;-82
2023/08/22 07:11:04;;;;;;;13.70;10.80;;;;;;;-128.00;-1.00;-1.00;105587;1253;1003586;-82
2023/08/22 07:13:31;;;;;;;17.90;12.00;;;;;;;-128.00;-1.00;-1.00;105535;1253;1004022;-82
2023/08/22 07:15:58;;;;;;;10.50;9.40;;;;;;;-128.00;-1.00;-1.00;105425;1253;1004836;-81
2023/08/22 07:18:26;;;;;;;12.70;10.70;;;;;;;-128.00;-1.00;-1.00;105462;1253;1004737;-81
2023/08/22 07:20:53;;;;;;;;;;;;;;;-128.00;-1.00;-1.00;105451;1253;1046905;-81
2023/08/22 07:23:20;;;;;;;17.40;11.80;;;;;;;-128.00;-1.00;-1.00;105422;1253;1005133;-81
2023/08/22 07:25:48;;;;;;;14.30;10.10;;;;;;;-128.00;-1.00;-1.00;105474;1253;1004427;-81
2023/08/22 07:28:15;;;;;;;13.80;9.10;;;;;;;-128.00;-1.00;-1.00;105507;1254;1004868;-81
2023/08/22 07:30:45;;;;;;;12.40;10.50;;;;;;;-128.00;-1.00;-1.00;105302;1253;1004940;-82
2023/08/22 07:33:12;;;;;;;11.10;10.00;;;;;;;-128.00;-1.00;-1.00;105439;1254;1046499;-82
2023/08/22 07:35:39;;;;;;;14.10;10.80;;;;;;;-128.00;-1.00;-1.00;105441;1253;1004707;-82
2023/08/22 07:38:06;;;;;;;16.00;10.80;;;;;;;-128.00;-1.00;-1.00;105416;1253;1005028;-81
2023/08/22 07:40:35;;;;;;;14.90;10.30;;;;;;;-128.00;-1.00;-1.00;105446;1253;1005234;-82
2023/08/22 07:43:03;;;;;;;10.60;9.50;;;;;;;-128.00;-1.00;-1.00;105300;1254;1059962;-82
2023/08/22 07:45:30;;;;;;;9.80;8.20;;;;;;;-128.00;-1.00;-1.00;105596;1253;1003900;-83
2023/08/22 07:47:56;;;;;;;11.90;8.70;;;;;;;-128.00;-1.00;-1.00;105570;1253;1004346;-83
2023/08/22 07:50:22;;;;;;;11.30;8.40;;;;;;;-128.00;-1.00;-1.00;105570;1254;1005226;-82
2023/08/22 07:52:49;;;;;;;12.70;10.30;;;;;;;-128.00;-1.00;-1.00;105677;1253;1005327;-82
2023/08/22 07:55:15;;;;;;;10.20;8.60;;;;;;;-128.00;-1.00;-1.00;105611;1253;1003432;-82
2023/08/22 07:57:42;;;;;;;9.90;7.70;;;;;;;-128.00;-1.00;-1.00;105503;1253;1003483;-82
2023/08/22 08:00:12;;;;;;;11.70;8.10;;;;;;;-128.00;-1.00;-1.00;105443;1254;1004183;-82
2023/08/22 08:02:39;;;;;;;13.10;8.20;;;;;;;-128.00;-1.00;-1.00;105442;1253;1060951;-82
2023/08/22 08:05:06;;;;;;;10.30;9.10;;;;;;;-128.00;-1.00;-1.00;105454;1253;1003662;-82
2023/08/22 08:07:34;;;;;;;10.40;9.30;;;;;;;-128.00;-1.00;-1.00;105323;1253;1005026;-82
2023/08/22 08:10:01;;;;;;;9.90;8.90;;;;;;;-128.00;-1.00;-1.00;105393;1254;1003576;-82
2023/08/22 08:12:27;;;;;;;11.60;9.50;;;;;;;-128.00;-1.00;-1.00;105478;1253;1003327;-82
2023/08/22 08:14:54;;;;;;;15.80;10.70;;;;;;;-128.00;-1.00;-1.00;105352;1253;1003814;-82
2023/08/22 08:17:20;;;;;;;12.20;10.20;;;;;;;-128.00;-1.00;-1.00;105517;1253;1004259;-82
2023/08/22 08:19:47;;;;;;;11.10;10.00;;;;;;;-128.00;-1.00;-1.00;105442;1253;1004579;-82
2023/08/22 08:22:14;;;;;;;11.50;10.30;;;;;;;-128.00;-1.00;-1.00;105503;1253;1004227;-82
2023/08/22 08:24:40;;;;;;;13.30;10.30;;;;;;;-128.00;-1.00;-1.00;105454;1253;1004324;-82
2023/08/22 08:27:07;;;;;;;11.60;10.40;;;;;;;-128.00;-1.00;-1.00;105519;1253;1004849;-82
2023/08/22 08:29:34;;;;;;;13.40;10.10;;;;;;;-128.00;-1.00;-1.00;105436;1253;1005088;-82
2023/08/22 08:32:00;;;;;;;12.70;9.70;;;;;;;-128.00;-1.00;-1.00;105449;1252;1004778;-82
2023/08/22 08:34:27;;;;;;;13.60;10.50;;;;;;;-128.00;-1.00;-1.00;105487;1253;1003696;-82
2023/08/22 08:36:53;;;;;;;12.30;10.90;;;;;;;-128.00;-1.00;-1.00;105449;1253;1004784;-82
2023/08/22 08:39:20;;;;;;;16.20;9.40;;;;;;;-128.00;-1.00;-1.00;105434;1253;1003896;-82
2023/08/22 08:42:02;;;;;;;19.10;9.60;;;;;;;-128.00;-1.00;-1.00;105484;1253;1004135;-82
2023/08/22 08:44:29;;;;;;;15.10;10.10;;;;;;;-128.00;-1.00;-1.00;105416;1253;1058502;-82
2023/08/22 08:46:55;;;;;;;9.90;8.90;;;;;;;-128.00;-1.00;-1.00;105367;1253;1004591;-83
2023/08/22 08:49:22;;;;;;;10.80;9.70;;;;;;;-128.00;-1.00;-1.00;105369;1253;1004543;-83
2023/08/22 08:51:48;;;;;;;11.70;9.10;;;;;;;-128.00;-1.00;-1.00;105374;1253;1004316;-83
2023/08/22 08:54:14;;;;;;;10.80;9.70;;;;;;;-128.00;-1.00;-1.00;105349;1256;1003901;-83
2023/08/22 08:56:41;;;;;;;9.70;8.80;;;;;;;-128.00;-1.00;-1.00;105322;1253;1004832;-82
2023/08/22 08:59:07;;;;;;;12.00;9.40;;;;;;;-128.00;-1.00;-1.00;105440;1253;1004257;-82
2023/08/22 09:01:34;;;;;;;9.50;8.50;;;;;;;-128.00;-1.00;-1.00;105222;1254;1004512;-83
2023/08/22 09:04:00;;;;;;;20.20;11.50;;;;;;;-128.00;-1.00;-1.00;105338;1252;1005458;-83
2023/08/22 09:06:27;;;;;;;10.30;9.40;;;;;;;-128.00;-1.00;-1.00;105330;1252;1003296;-83
2023/08/22 09:09:08;;;;;;;9.20;8.30;;;;;;;-128.00;-1.00;-1.00;105682;1253;1004516;-83
2023/08/22 09:11:35;;;;;;;8.60;7.70;;;;;;;-128.00;-1.00;-1.00;105619;1253;1043940;-83
2023/08/22 09:14:02;;;;;;;9.00;8.20;;;;;;;-128.00;-1.00;-1.00;105511;1253;1003934;-83
2023/08/22 09:16:29;;;;;;;10.00;7.50;;;;;;;-128.00;-1.00;-1.00;105267;1253;1004617;-83
2023/08/22 09:19:02;;;;;;;8.20;7.40;;;;;;;-128.00;-1.00;-1.00;105347;1253;1004531;-83
2023/08/22 09:21:29;;;;;;;10.10;7.70;;;;;;;-128.00;-1.00;-1.00;105478;1253;1060378;-83
2023/08/22 09:24:08;;;;;;;9.90;7.90;;;;;;;-128.00;-1.00;-1.00;105466;1253;1004183;-83
2023/08/22 09:26:35;;;;;;;9.50;8.50;;;;;;;-128.00;-1.00;-1.00;105159;1254;1047732;-83
2023/08/22 09:29:05;;;;;;;;;;;;;;;-128.00;-1.00;-1.00;105366;1254;1004824;-83
2023/08/22 09:31:33;;;;;;;8.30;7.50;;;;;;;-128.00;-1.00;-1.00;105346;1256;1058355;-83
2023/08/22 09:34:05;;;;;;;12.50;11.30;;;;;;;-128.00;-1.00;-1.00;105517;1252;1005215;-83
2023/08/22 09:36:32;;;;;;;11.40;10.00;;;;;;;-128.00;-1.00;-1.00;105433;1253;1045175;-83
2023/08/22 09:38:58;;;;;;;9.50;8.70;;;;;;;-128.00;-1.00;-1.00;105467;1254;1004357;-83
2023/08/22 09:41:26;;;;;;;10.90;8.90;;;;;;;-128.00;-1.00;-1.00;105498;1252;1004207;-83
2023/08/22 09:43:54;;;;;;;8.40;7.60;;;;;;;-128.00;-1.00;-1.00;105500;1253;1005161;-83
2023/08/22 09:46:21;;;;;;;9.40;8.40;;;;;;;-128.00;-1.00;-1.00;105426;1254;1058554;-84
2023/08/22 09:48:48;;;;;;;8.00;7.20;;;;;;;-128.00;-1.00;-1.00;105419;1253;1004240;-83
2023/08/22 09:51:19;;;;;;;8.30;7.50;;;;;;;-128.00;-1.00;-1.00;105491;1253;1004168;-83
2023/08/22 09:53:51;;;;;;;7.40;6.70;;;;;;;-128.00;-1.00;-1.00;105591;1253;1061260;-83
2023/08/22 09:56:19;;;;;;;7.90;7.10;;;;;;;-128.00;-1.00;-1.00;105470;1253;1058009;-83
2023/08/22 09:58:46;;;;;;;8.70;7.80;;;;;;;-128.00;-1.00;-1.00;105439;1253;1004339;-83
2023/08/22 10:01:16;;;;;;;12.90;8.40;;;;;;;-128.00;-1.00;-1.00;105549;1254;1004281;-83
2023/08/22 10:03:46;;;;;;;8.20;7.40;;;;;;;-128.00;-1.00;-1.00;105389;1253;1046946;-83
2023/08/22 10:06:13;;;;;;;7.70;6.90;;;;;;;-128.00;-1.00;-1.00;105453;1253;1060954;-83
2023/08/22 10:08:46;;;;;;;10.90;9.20;;;;;;;-128.00;-1.00;-1.00;105444;1252;1004748;-83
2023/08/22 10:11:13;;;;;;;9.00;8.20;;;;;;;-128.00;-1.00;-1.00;105262;1252;1059814;-83
2023/08/22 10:13:40;;;;;;;9.90;8.90;;;;;;;-128.00;-1.00;-1.00;105385;1256;1004166;-83
2023/08/22 10:16:07;;;;;;;9.60;8.70;;;;;;;-128.00;-1.00;-1.00;105469;1251;1004453;-83
2023/08/22 10:18:33;;;;;;;10.70;9.10;;;;;;;-128.00;-1.00;-1.00;105383;1253;1004604;-83
2023/08/22 10:21:00;;;;;;;13.20;9.30;;;;;;;-128.00;-1.00;-1.00;105546;1253;1003812;-83
2023/08/22 10:23:51;;;;;;;12.20;10.40;;;;;;;-128.00;-1.00;-1.00;105583;1252;1004597;-83
2023/08/22 10:26:22;;;;;;;12.80;10.70;;;;;;;-128.00;-1.00;-1.00;105485;1253;1044321;-82
2023/08/22 10:29:13;;;;;;;11.10;9.90;;;;;;;-128.00;-1.00;-1.00;105536;1253;1047408;-82
2023/08/22 10:32:15;;;;;;;10.50;9.40;;;;;;;-128.00;-1.00;-1.00;105561;1254;1061751;-82
2023/08/22 10:34:41;;;;;;;12.50;9.80;;;;;;;-128.00;-1.00;-1.00;105165;1254;1058610;-82
2023/08/22 10:37:14;;;;;;;11.60;10.20;;;;;;;-128.00;-1.00;-1.00;105517;1251;1003971;-82
2023/08/22 10:39:42;;;;;;;12.80;9.90;;;;;;;-128.00;-1.00;-1.00;105531;1253;1044816;-82
2023/08/22 10:42:16;;;;;;;16.80;10.10;;;;;;;-128.00;-1.00;-1.00;105585;1252;1003991;-82
2023/08/22 10:44:47;;;;;;;11.40;10.30;;;;;;;-128.00;-1.00;-1.00;105562;1251;1061646;-82
2023/08/22 10:47:21;;;;;;;11.60;10.30;;;;;;;-128.00;-1.00;-1.00;105529;1252;1059053;-82
2023/08/22 10:49:48;;;;;;;14.00;10.40;;;;;;;-128.00;-1.00;-1.00;105328;1251;1059710;-82
2023/08/22 10:52:15;;;;;;;11.00;9.90;;;;;;;-128.00;-1.00;-1.00;105558;1253;1004190;-82
2023/08/22 10:55:05;;;;;;;12.30;10.10;;;;;;;-128.00;-1.00;-1.00;105522;1252;1004307;-82
2023/08/22 10:57:40;;;;;;;15.70;10.40;;;;;;;-128.00;-1.00;-1.00;105467;1253;1061032;-82
2023/08/22 11:00:12;;;;;;;12.10;9.20;;;;;;;-128.00;-1.00;-1.00;105542;1252;1059229;-82
2023/08/22 11:02:40;;;;;;;12.10;9.60;;;;;;;-128.00;-1.00;-1.00;105546;1251;1059011;-82
2023/08/22 11:05:11;;;;;;;13.30;9.50;;;;;;;-128.00;-1.00;-1.00;105513;1253;1004537;-82
2023/08/22 11:07:41;;;;;;;10.20;8.60;;;;;;;-128.00;-1.00;-1.00;105402;1252;1047799;-82